createdAt,value
2018-06-17T00:00:27.409Z,3.20
2018-06-17T00:02:56.287Z,3.20
2018-06-17T00:05:25.539Z,3.27
2018-06-17T00:07:54.476Z,2.67
2018-06-17T00:10:23.506Z,2.80
2018-06-17T00:12:52.162Z,2.37
2018-06-17T00:15:45.431Z,2.57
2018-06-17T00:18:14.323Z,2.97
2018-06-17T00:20:43.323Z,2.33
2018-06-17T00:23:12.034Z,2.93
2018-06-17T00:25:40.694Z,2.83
2018-06-17T00:28:09.616Z,2.23
2018-06-17T00:30:38.287Z,2.30
2018-06-17T00:33:06.949Z,3.10
2018-06-17T00:35:55.725Z,2.67
2018-06-17T00:38:25.157Z,3.33
2018-06-17T00:40:54.051Z,3.10
2018-06-17T00:43:22.925Z,2.93
2018-06-17T00:45:51.567Z,2.97
2018-06-17T00:48:20.177Z,2.50
2018-06-17T00:50:48.890Z,2.93
2018-06-17T00:53:19.445Z,2.80
2018-06-17T00:55:48.158Z,2.27
2018-06-17T00:58:37.521Z,2.60
2018-06-17T01:01:06.372Z,2.93
2018-06-17T01:03:35.289Z,3.10
2018-06-17T01:06:04.162Z,2.97
2018-06-17T01:08:32.865Z,2.60
2018-06-17T01:11:01.530Z,2.60
2018-06-17T01:13:30.249Z,2.70
2018-06-17T01:15:59.010Z,2.47
2018-06-17T01:18:27.697Z,2.37
2018-06-17T01:20:56.538Z,3.17
2018-06-17T01:23:25.663Z,2.17
2018-06-17T01:25:54.527Z,2.67
2018-06-17T01:28:23.144Z,3.00
2018-06-17T01:30:51.769Z,2.17
2018-06-17T01:33:29.225Z,2.83
2018-06-17T01:35:57.957Z,3.17
2018-06-17T01:41:03.124Z,3.03
2018-06-17T01:43:32.031Z,2.40
2018-06-17T01:46:01.255Z,3.00
2018-06-17T01:48:29.896Z,2.77
2018-06-17T01:50:58.757Z,2.73
2018-06-17T01:53:27.860Z,3.67
2018-06-17T01:55:56.520Z,3.40
2018-06-17T02:02:55.260Z,2.87
2018-06-17T02:08:21.419Z,2.80
2018-06-17T02:14:01.577Z,3.10
2018-06-17T02:16:58.548Z,3.10
2018-06-17T02:19:27.382Z,3.13
2018-06-17T02:24:35.145Z,3.70
2018-06-17T02:27:28.495Z,3.67
2018-06-17T02:29:57.302Z,2.90
2018-06-17T02:32:25.991Z,3.07
2018-06-17T02:34:55.077Z,3.60
2018-06-17T02:37:23.698Z,2.90
2018-06-17T02:39:52.370Z,3.33
2018-06-17T02:42:34.136Z,2.63
2018-06-17T02:45:33.366Z,2.47
2018-06-17T02:51:01.812Z,1.70
2018-06-17T02:54:30.317Z,2.03
2018-06-17T02:56:59.157Z,1.83
2018-06-17T03:02:35.644Z,2.10
2018-06-17T03:05:04.421Z,1.77
2018-06-17T03:07:33.184Z,2.10
2018-06-17T03:10:02.034Z,1.73
2018-06-17T03:12:30.754Z,1.67
2018-06-17T03:14:59.511Z,2.47
2018-06-17T03:17:28.261Z,1.90
2018-06-17T03:19:57.003Z,1.83
2018-06-17T03:22:25.653Z,1.60
2018-06-17T03:25:12.685Z,1.73
2018-06-17T03:27:46.580Z,1.93
2018-06-17T03:30:20.621Z,1.90
2018-06-17T03:33:03.797Z,1.73
2018-06-17T03:38:25.188Z,2.20
2018-06-17T03:40:53.951Z,1.70
2018-06-17T03:43:22.652Z,1.90
2018-06-17T03:45:51.586Z,1.47
2018-06-17T03:48:20.229Z,2.50
2018-06-17T03:50:48.982Z,2.03
2018-06-17T03:53:27.939Z,1.90
2018-06-17T03:56:00.369Z,1.90
2018-06-17T03:58:29.246Z,1.63
2018-06-17T04:00:57.942Z,1.97
2018-06-17T04:03:26.750Z,1.80
2018-06-17T04:05:55.814Z,2.40
2018-06-17T04:08:24.435Z,1.80
2018-06-17T04:10:53.295Z,1.90
2018-06-17T04:13:21.923Z,1.90
2018-06-17T04:15:50.794Z,2.00
2018-06-17T04:18:27.787Z,1.70
2018-06-17T04:20:56.707Z,1.90
2018-06-17T04:26:41.033Z,1.87
2018-06-17T04:30:04.993Z,2.20
2018-06-17T04:32:33.899Z,2.20
2018-06-17T04:35:02.776Z,2.10
2018-06-17T04:40:28.678Z,1.80
2018-06-17T04:45:57.289Z,1.90
2018-06-17T04:48:25.870Z,1.40
2018-06-17T04:50:54.870Z,2.03
2018-06-17T04:53:23.468Z,1.40
2018-06-17T04:55:53.416Z,1.83
2018-06-17T04:58:22.029Z,2.13
2018-06-17T05:00:52.822Z,2.17
2018-06-17T05:03:22.590Z,2.23
2018-06-17T05:05:57.649Z,1.90
2018-06-17T05:08:26.251Z,2.20
2018-06-17T05:10:55.372Z,2.03
2018-06-17T05:13:24.277Z,1.40
2018-06-17T05:15:53.033Z,1.37
2018-06-17T05:18:21.885Z,1.93
2018-06-17T05:20:50.721Z,1.87
2018-06-17T05:23:19.673Z,2.27
2018-06-17T05:25:49.050Z,2.13
2018-06-17T05:28:17.972Z,1.87
2018-06-17T05:30:47.065Z,2.00
2018-06-17T05:33:16.640Z,1.77
2018-06-17T05:35:45.459Z,1.60
2018-06-17T05:38:14.184Z,2.37
2018-06-17T05:40:43.485Z,1.97
2018-06-17T05:43:12.277Z,2.00
2018-06-17T05:45:40.971Z,1.17
2018-06-17T05:48:09.572Z,1.60
2018-06-17T05:50:56.526Z,1.20
2018-06-17T05:53:25.152Z,1.63
2018-06-17T05:55:53.850Z,1.90
2018-06-17T05:58:22.617Z,2.10
2018-06-17T06:00:51.271Z,1.80
2018-06-17T06:03:21.876Z,1.20
2018-06-17T06:05:50.572Z,1.53
2018-06-17T06:08:20.729Z,1.97
2018-06-17T06:10:49.329Z,1.53
2018-06-17T06:13:19.621Z,2.10
2018-06-17T06:15:48.354Z,1.40
2018-06-17T06:18:17.064Z,1.37
2018-06-17T06:20:45.987Z,1.30
2018-06-17T06:23:14.729Z,1.00
2018-06-17T06:25:43.637Z,1.70
2018-06-17T06:28:12.982Z,1.50
2018-06-17T06:30:41.605Z,1.33
2018-06-17T06:33:10.309Z,1.63
2018-06-17T06:35:39.018Z,1.83
2018-06-17T06:38:07.957Z,1.60
2018-06-17T06:40:36.649Z,1.80
2018-06-17T06:43:05.249Z,1.43
2018-06-17T06:45:34.030Z,1.63
2018-06-17T06:48:04.887Z,2.33
2018-06-17T06:50:33.703Z,1.53
2018-06-17T06:53:02.419Z,1.40
2018-06-17T06:55:31.155Z,1.37
2018-06-17T06:58:00.020Z,1.87
2018-06-17T07:00:28.757Z,1.40
2018-06-17T07:03:08.353Z,2.13
2018-06-17T07:05:47.907Z,1.90
2018-06-17T07:08:27.537Z,1.57
2018-06-17T07:10:56.235Z,2.43
2018-06-17T07:13:26.922Z,1.93
2018-06-17T07:16:06.718Z,1.80
2018-06-17T07:18:36.771Z,1.50
2018-06-17T07:21:17.670Z,2.00
2018-06-17T07:23:46.734Z,2.20
2018-06-17T07:26:58.384Z,2.17
2018-06-17T07:29:40.041Z,2.40
2018-06-17T07:32:09.274Z,1.70
2018-06-17T07:34:37.818Z,1.90
2018-06-17T07:37:06.666Z,1.10
2018-06-17T07:41:42.835Z,1.33
2018-06-17T07:44:11.328Z,1.33
2018-06-17T07:46:40.641Z,2.00
2018-06-17T07:49:31.640Z,1.20
2018-06-17T07:52:12.557Z,1.90
2018-06-17T07:54:42.018Z,1.43
2018-06-17T07:57:11.782Z,1.47
2018-06-17T07:59:40.441Z,1.60
2018-06-17T08:02:09.398Z,1.00
2018-06-17T08:04:38.143Z,1.97
2018-06-17T08:07:07.261Z,2.17
2018-06-17T08:09:35.942Z,1.67
2018-06-17T08:12:04.676Z,1.37
2018-06-17T08:14:33.265Z,1.47
2018-06-17T08:17:01.686Z,1.33
2018-06-17T08:19:30.517Z,1.87
2018-06-17T08:21:59.970Z,1.57
2018-06-17T08:24:29.017Z,1.97
2018-06-17T08:26:57.772Z,1.70
2018-06-17T08:29:26.509Z,1.60
2018-06-17T08:31:55.691Z,2.00
2018-06-17T08:34:24.200Z,2.00
2018-06-17T08:36:53.343Z,1.20
2018-06-17T08:39:23.006Z,1.43
2018-06-17T08:41:51.797Z,1.80
2018-06-17T08:44:20.837Z,2.27
2018-06-17T08:46:49.963Z,1.80
2018-06-17T08:49:19.149Z,2.00
2018-06-17T08:51:47.874Z,1.77
2018-06-17T08:54:16.724Z,2.17
2018-06-17T08:56:45.406Z,1.70
2018-06-17T08:59:13.831Z,1.50
2018-06-17T09:01:42.645Z,2.00
2018-06-17T09:04:11.385Z,1.50
2018-06-17T09:06:39.984Z,2.07
2018-06-17T09:09:11.016Z,2.40
2018-06-17T09:11:39.510Z,2.10
2018-06-17T09:14:08.275Z,1.90
2018-06-17T09:16:36.977Z,1.80
2018-06-17T09:19:05.821Z,1.83
2018-06-17T09:21:34.451Z,1.67
2018-06-17T09:24:03.189Z,1.70
2018-06-17T09:26:31.968Z,2.03
2018-06-17T09:29:00.803Z,1.73
2018-06-17T09:31:29.770Z,2.10
2018-06-17T09:33:58.495Z,1.30
2018-06-17T09:36:27.055Z,1.23
2018-06-17T09:38:55.775Z,2.40
2018-06-17T09:41:24.659Z,1.97
2018-06-17T09:43:53.834Z,2.10
2018-06-17T09:46:22.337Z,2.07
2018-06-17T09:48:51.030Z,1.60
2018-06-17T09:51:19.619Z,1.40
2018-06-17T09:53:48.194Z,1.37
2018-06-17T09:56:16.776Z,2.00
2018-06-17T09:58:45.336Z,1.50
2018-06-17T10:01:13.859Z,1.80
2018-06-17T10:03:42.633Z,1.73
2018-06-17T10:06:11.275Z,1.87
2018-06-17T10:08:39.937Z,1.50
2018-06-17T10:11:08.676Z,1.60
2018-06-17T10:13:41.513Z,1.57
2018-06-17T10:16:10.414Z,1.73
2018-06-17T10:18:39.333Z,2.30
2018-06-17T10:21:08.604Z,1.43
2018-06-17T10:23:37.406Z,1.47
2018-06-17T10:26:06.208Z,1.53
2018-06-17T10:28:35.193Z,1.30
2018-06-17T10:31:05.456Z,2.10
2018-06-17T10:33:34.856Z,1.47
2018-06-17T10:36:03.906Z,1.47
2018-06-17T10:38:32.822Z,1.57
2018-06-17T10:41:01.536Z,1.67
2018-06-17T10:43:31.322Z,1.30
2018-06-17T10:46:00.028Z,1.53
2018-06-17T10:48:28.855Z,1.40
2018-06-17T10:50:57.559Z,1.70
2018-06-17T10:53:26.141Z,1.60
2018-06-17T10:55:54.978Z,1.70
2018-06-17T10:58:26.721Z,1.67
2018-06-17T11:00:55.309Z,2.23
2018-06-17T11:03:23.805Z,1.50
2018-06-17T11:05:52.767Z,1.30
2018-06-17T11:08:21.410Z,1.40
2018-06-17T11:10:50.202Z,1.33
2018-06-17T11:13:19.054Z,1.47
2018-06-17T11:15:47.841Z,1.60
2018-06-17T11:18:16.398Z,1.33
2018-06-17T11:20:45.094Z,1.47
2018-06-17T11:23:13.897Z,1.63
2018-06-17T11:25:42.529Z,1.17
2018-06-17T11:28:10.926Z,1.80
2018-06-17T11:30:39.842Z,1.73
2018-06-17T11:33:08.395Z,2.20
2018-06-17T11:35:37.162Z,1.50
2018-06-17T11:38:05.700Z,1.50
2018-06-17T11:40:35.109Z,1.20
2018-06-17T11:43:05.101Z,1.80
2018-06-17T11:45:35.524Z,2.00
2018-06-17T11:48:04.094Z,2.00
2018-06-17T11:50:34.919Z,1.87
2018-06-17T11:53:03.856Z,1.87
2018-06-17T11:55:32.568Z,1.40
2018-06-17T11:58:01.414Z,1.40
2018-06-17T12:00:30.317Z,1.93
2018-06-17T12:02:59.243Z,1.90
2018-06-17T12:05:27.677Z,1.63
2018-06-17T12:07:56.137Z,1.73
2018-06-17T12:10:25.310Z,1.60
2018-06-17T12:12:53.894Z,1.70
2018-06-17T12:15:22.650Z,1.90
2018-06-17T12:17:51.388Z,1.57
2018-06-17T12:20:20.457Z,1.60
2018-06-17T12:22:49.165Z,1.93
2018-06-17T12:25:17.939Z,1.40
2018-06-17T12:27:46.735Z,1.03
2018-06-17T12:30:15.317Z,1.40
2018-06-17T12:32:44.252Z,1.13
2018-06-17T12:35:12.873Z,1.50
2018-06-17T12:37:41.533Z,1.50
2018-06-17T12:40:10.276Z,1.27
2018-06-17T12:42:38.897Z,1.97
2018-06-17T12:45:07.572Z,1.30
2018-06-17T12:47:36.310Z,1.30
2018-06-17T12:50:05.200Z,1.70
2018-06-17T12:52:33.726Z,1.90
2018-06-17T12:55:02.181Z,1.50
2018-06-17T12:57:31.148Z,1.67
2018-06-17T13:00:00.238Z,1.60
2018-06-17T13:02:28.954Z,2.07
2018-06-17T13:04:57.481Z,2.77
2018-06-17T13:07:26.478Z,2.47
2018-06-17T13:09:55.005Z,2.93
2018-06-17T13:12:23.794Z,1.73
2018-06-17T13:14:52.359Z,1.50
2018-06-17T13:17:21.643Z,1.73
2018-06-17T13:19:50.343Z,1.87
2018-06-17T13:22:19.430Z,1.60
2018-06-17T13:24:47.893Z,1.37
2018-06-17T13:27:16.560Z,1.87
2018-06-17T13:29:45.210Z,1.87
2018-06-17T13:32:13.905Z,1.00
2018-06-17T13:34:43.083Z,1.27
2018-06-17T13:37:11.625Z,1.23
2018-06-17T13:39:40.494Z,0.80
2018-06-17T13:42:09.238Z,1.00
2018-06-17T13:44:38.055Z,1.20
2018-06-17T13:47:07.053Z,1.30
2018-06-17T13:49:35.703Z,1.57
2018-06-17T13:52:04.496Z,1.03
2018-06-17T13:54:33.422Z,0.90
2018-06-17T13:57:02.030Z,1.20
2018-06-17T13:59:30.785Z,1.00
2018-06-17T14:01:59.292Z,1.30
2018-06-17T14:04:27.820Z,1.10
2018-06-17T14:06:57.707Z,2.73
2018-06-17T14:09:26.398Z,1.33
2018-06-17T14:11:55.184Z,1.20
2018-06-17T14:14:23.630Z,0.93
2018-06-17T14:16:52.359Z,1.37
2018-06-17T14:19:20.818Z,1.33
2018-06-17T14:21:49.668Z,1.17
2018-06-17T14:24:18.394Z,2.77
2018-06-17T14:26:47.513Z,1.30
2018-06-17T14:29:16.365Z,0.90
2018-06-17T14:31:44.855Z,0.93
2018-06-17T14:34:13.278Z,1.00
2018-06-17T14:36:41.707Z,2.00
2018-06-17T14:39:12.037Z,1.50
2018-06-17T14:41:40.730Z,1.87
2018-06-17T14:44:14.598Z,1.70
2018-06-17T14:46:48.597Z,1.30
2018-06-17T14:49:22.657Z,1.57
2018-06-17T14:51:55.525Z,1.27
2018-06-17T14:54:24.860Z,1.87
2018-06-17T14:56:54.317Z,1.67
2018-06-17T14:59:23.130Z,1.30
2018-06-17T15:01:51.610Z,1.20
2018-06-17T15:04:20.258Z,1.50
2018-06-17T15:06:48.817Z,1.20
2018-06-17T15:09:17.649Z,1.17
2018-06-17T15:11:46.172Z,1.33
2018-06-17T15:14:14.855Z,1.37
2018-06-17T15:16:43.445Z,1.00
2018-06-17T15:19:12.202Z,1.13
2018-06-17T15:21:40.701Z,1.40
2018-06-17T15:24:09.618Z,1.43
2018-06-17T15:26:38.357Z,1.30
2018-06-17T15:29:06.924Z,1.10
2018-06-17T15:31:40.917Z,1.57
2018-06-17T15:34:14.677Z,1.23
2018-06-17T15:36:48.827Z,1.40
2018-06-17T15:39:22.874Z,1.20
2018-06-17T15:41:53.329Z,1.23
2018-06-17T15:44:22.354Z,1.20
2018-06-17T15:46:51.354Z,1.13
2018-06-17T15:49:19.912Z,1.67
2018-06-17T15:51:49.067Z,1.50
2018-06-17T15:54:17.753Z,1.40
2018-06-17T15:56:46.466Z,1.57
2018-06-17T15:59:15.323Z,1.23
2018-06-17T16:01:44.123Z,1.83
2018-06-17T16:04:13.258Z,1.47
2018-06-17T16:06:41.996Z,1.60
2018-06-17T16:09:12.361Z,1.00
2018-06-17T16:11:46.190Z,1.50
2018-06-17T16:14:20.537Z,1.30
2018-06-17T16:16:54.240Z,1.47
2018-06-17T16:19:27.957Z,1.77
2018-06-17T16:21:57.851Z,1.30
2018-06-17T16:24:27.062Z,1.30
2018-06-17T16:26:55.730Z,1.10
2018-06-17T16:29:24.435Z,1.47
2018-06-17T16:31:53.378Z,1.30
2018-06-17T16:34:22.133Z,1.10
2018-06-17T16:36:50.999Z,1.23
2018-06-17T16:39:19.633Z,1.43
2018-06-17T16:41:48.870Z,1.10
2018-06-17T16:44:21.110Z,1.10
2018-06-17T16:46:49.941Z,1.40
2018-06-17T16:49:18.641Z,1.10
2018-06-17T16:53:58.413Z,1.07
2018-06-17T16:56:32.667Z,1.23
2018-06-17T16:59:06.545Z,1.47
2018-06-17T17:01:35.437Z,1.43
2018-06-17T17:04:03.931Z,2.07
2018-06-17T17:06:32.734Z,1.17
2018-06-17T17:09:01.410Z,1.37
2018-06-17T17:11:32.310Z,1.10
2018-06-17T17:14:02.863Z,1.10
2018-06-17T17:16:31.990Z,1.20
2018-06-17T17:19:00.871Z,1.10
2018-06-17T17:21:29.633Z,1.87
2018-06-17T17:24:00.341Z,1.23
2018-06-17T17:26:29.148Z,1.20
2018-06-17T17:28:57.821Z,1.13
2018-06-17T17:31:30.765Z,1.40
2018-06-17T17:34:05.574Z,1.17
2018-06-17T17:36:39.691Z,1.00
2018-06-17T17:39:13.766Z,1.03
2018-06-17T17:41:45.989Z,0.90
2018-06-17T17:44:17.751Z,1.17
2018-06-17T17:46:52.770Z,1.20
2018-06-17T17:49:21.880Z,1.23
2018-06-17T17:51:50.884Z,1.13
2018-06-17T17:54:20.991Z,1.27
2018-06-17T17:56:49.930Z,0.93
2018-06-17T17:59:28.565Z,1.33
2018-06-17T18:01:58.336Z,1.20
2018-06-17T18:04:27.037Z,0.90
2018-06-17T18:07:09.279Z,0.80
2018-06-17T18:09:38.648Z,0.90
2018-06-17T18:12:08.828Z,1.13
2018-06-17T18:14:37.615Z,0.90
2018-06-17T18:17:07.057Z,1.17
2018-06-17T18:19:35.807Z,1.37
2018-06-17T18:22:04.598Z,1.10
2018-06-17T18:24:34.230Z,1.30
2018-06-17T18:27:08.317Z,1.53
2018-06-17T18:29:47.825Z,1.77
2018-06-17T18:32:21.631Z,0.80
2018-06-17T18:34:55.646Z,1.00
2018-06-17T18:37:24.938Z,1.10
2018-06-17T18:39:54.013Z,0.90
2018-06-17T18:42:22.913Z,1.50
2018-06-17T18:44:52.013Z,1.10
2018-06-17T18:47:22.131Z,1.37
2018-06-17T18:49:50.950Z,1.20
2018-06-17T18:52:19.881Z,1.33
2018-06-17T18:54:48.925Z,1.07
2018-06-17T18:57:19.566Z,1.13
2018-06-17T18:59:48.525Z,1.73
2018-06-17T19:02:17.237Z,0.80
2018-06-17T19:07:20.462Z,1.00
2018-06-17T19:09:54.494Z,1.50
2018-06-17T19:12:28.687Z,0.93
2018-06-17T19:15:02.416Z,0.77
2018-06-17T19:17:37.091Z,1.60
2018-06-17T19:20:06.692Z,1.03
2018-06-17T19:22:35.866Z,1.40
2018-06-17T19:25:05.035Z,1.57
2018-06-17T19:27:36.301Z,1.57
2018-06-17T19:30:08.000Z,1.90
2018-06-17T19:32:39.686Z,0.83
2018-06-17T19:35:08.825Z,1.63
2018-06-17T19:37:42.835Z,1.30
2018-06-17T19:40:14.202Z,1.20
2018-06-17T19:42:46.273Z,1.13
2018-06-17T19:45:15.485Z,1.10
2018-06-17T19:47:44.265Z,1.20
2018-06-17T19:50:18.326Z,1.83
2018-06-17T19:52:52.429Z,2.37
2018-06-17T19:55:26.501Z,1.50
2018-06-17T19:58:09.543Z,1.40
2018-06-17T20:00:40.864Z,1.50
2018-06-17T20:03:09.513Z,2.00
2018-06-17T20:05:38.243Z,1.53
2018-06-17T20:08:07.084Z,1.83
2018-06-17T20:10:35.714Z,1.57
2018-06-17T20:13:05.078Z,1.73
2018-06-17T20:15:33.941Z,1.27
2018-06-17T20:18:14.476Z,1.17
2018-06-17T20:20:43.799Z,1.57
2018-06-17T20:23:16.229Z,1.70
2018-06-17T20:25:53.867Z,1.43
2018-06-17T20:31:05.974Z,2.00
2018-06-17T20:36:33.934Z,2.10
2018-06-17T20:39:07.727Z,1.50
2018-06-17T20:41:58.387Z,1.63
2018-06-17T20:44:27.273Z,1.53
2018-06-17T20:50:22.192Z,1.60
2018-06-17T20:55:52.841Z,1.60
2018-06-17T21:01:29.406Z,2.03
2018-06-17T21:03:58.167Z,1.37
2018-06-17T21:06:26.982Z,2.23
2018-06-17T21:09:20.912Z,1.90
2018-06-17T21:11:50.099Z,1.57
2018-06-17T21:14:52.354Z,1.70
2018-06-17T21:17:21.362Z,1.87
2018-06-17T21:19:59.117Z,2.03
2018-06-17T21:23:04.880Z,1.73
2018-06-17T21:25:38.770Z,2.03
2018-06-17T21:31:20.954Z,2.13
2018-06-17T21:33:49.724Z,2.00
2018-06-17T21:36:18.503Z,1.97
2018-06-17T21:38:47.407Z,2.07
2018-06-17T21:41:23.168Z,1.80
2018-06-17T21:43:54.128Z,1.90
2018-06-17T21:49:12.902Z,1.63
2018-06-17T21:51:41.822Z,1.70
2018-06-17T21:54:11.602Z,1.80
2018-06-17T21:56:40.393Z,1.60
2018-06-17T21:59:09.097Z,1.40
2018-06-17T22:01:38.057Z,2.33
2018-06-17T22:04:11.847Z,2.13
2018-06-17T22:12:01.485Z,2.40
2018-06-17T22:14:52.999Z,1.60
2018-06-17T22:17:52.732Z,1.50
2018-06-17T22:20:21.706Z,1.90
2018-06-17T22:22:50.573Z,1.50
2018-06-17T22:25:20.840Z,2.10
2018-06-17T22:30:55.993Z,2.30
2018-06-17T22:33:24.858Z,2.50
2018-06-17T22:38:47.230Z,2.40
2018-06-17T22:41:16.087Z,2.87
2018-06-17T22:46:49.321Z,2.43
2018-06-17T22:49:35.257Z,2.20
2018-06-17T22:54:57.977Z,2.20
2018-06-17T22:57:32.895Z,2.17
2018-06-17T23:00:06.870Z,1.73
2018-06-17T23:03:01.186Z,2.77
2018-06-17T23:05:37.283Z,2.40
2018-06-17T23:08:11.369Z,2.30
2018-06-17T23:10:40.177Z,1.73
2018-06-17T23:13:16.571Z,1.97
2018-06-17T23:15:45.417Z,3.37
2018-06-17T23:18:14.223Z,1.80
2018-06-17T23:20:42.951Z,2.13
2018-06-17T23:23:11.638Z,2.00
2018-06-17T23:25:40.390Z,2.30
2018-06-17T23:28:09.066Z,2.07
2018-06-17T23:30:37.830Z,1.93
2018-06-17T23:33:11.848Z,2.13
2018-06-17T23:35:41.982Z,2.30
2018-06-17T23:38:10.756Z,2.50
2018-06-17T23:40:40.358Z,2.50
2018-06-17T23:43:09.302Z,2.67
2018-06-17T23:45:44.727Z,2.20
2018-06-17T23:48:19.746Z,2.10
2018-06-17T23:50:53.786Z,2.07
2018-06-17T23:53:27.625Z,2.30
2018-06-17T23:56:02.776Z,2.00
2018-06-17T23:58:31.595Z,2.47
